Time;durP1;ratioP1;P1;durP2;ratioP2;P2;SDS_P1;SDS_P2;PMS_P1;PMS_P2;Temp;Humidity;BMP_temperature;BMP_pressure;BME280_temperature;BME280_humidity;BME280_pressure;Samples;Min_cycle;Max_cycle;Signal;HPM_P1;HPM_P2
2021/12/03 00:01:07;;;;;;;22.27;4.25;;;;;;;;;;5023903;28;20025;-75
2021/12/03 00:03:33;;;;;;;15.27;4.32;;;;;;;;;;5032479;28;20047;-76
2021/12/03 00:06:00;;;;;;;16.80;3.83;;;;;;;;;;5030571;28;20037;-76
2021/12/03 00:08:26;;;;;;;13.80;3.10;;;;;;;;;;5034399;28;20044;-76
2021/12/03 00:10:55;;;;;;;13.73;3.85;;;;;;;;;;5031364;28;20029;-75
2021/12/03 00:13:22;;;;;;;11.70;2.97;;;;;;;;;;5028204;28;20120;-77
2021/12/03 00:15:48;;;;;;;18.50;4.25;;;;;;;;;;5032777;28;20413;-74
2021/12/03 00:18:15;;;;;;;12.95;3.50;;;;;;;;;;5035190;28;20028;-76
2021/12/03 00:20:41;;;;;;;16.33;4.32;;;;;;;;;;5032176;28;20545;-74
2021/12/03 00:23:07;;;;;;;12.23;3.10;;;;;;;;;;5034007;28;20034;-76
2021/12/03 00:25:34;;;;;;;11.93;2.53;;;;;;;;;;5031334;28;20074;-74
2021/12/03 00:28:01;;;;;;;11.18;2.70;;;;;;;;;;5030291;28;20028;-77
2021/12/03 00:30:27;;;;;;;12.23;2.40;;;;;;;;;;5031531;28;20029;-76
2021/12/03 00:32:54;;;;;;;11.75;2.63;;;;;;;;;;5037070;28;20029;-74
2021/12/03 00:35:21;;;;;;;11.55;2.58;;;;;;;;;;5030567;28;20379;-74
2021/12/03 00:37:48;;;;;;;13.68;3.25;;;;;;;;;;5040262;28;20485;-74
2021/12/03 00:40:16;;;;;;;9.27;2.60;;;;;;;;;;5029718;28;20025;-76
2021/12/03 00:42:42;;;;;;;13.93;2.03;;;;;;;;;;5034257;28;20026;-76
2021/12/03 00:45:10;;;;;;;13.88;3.13;;;;;;;;;;5037302;28;20675;-74
2021/12/03 00:47:36;;;;;;;10.23;2.42;;;;;;;;;;5036026;28;20109;-77
2021/12/03 00:50:03;;;;;;;9.57;3.20;;;;;;;;;;5036629;28;20025;-76
2021/12/03 00:52:30;;;;;;;12.32;3.10;;;;;;;;;;5035894;28;20041;-76
2021/12/03 00:54:56;;;;;;;10.25;3.10;;;;;;;;;;5031726;28;20512;-75
2021/12/03 00:57:22;;;;;;;14.38;3.10;;;;;;;;;;5032861;28;20500;-76
2021/12/03 00:59:48;;;;;;;15.85;2.90;;;;;;;;;;5030521;28;20032;-76
2021/12/03 01:02:14;;;;;;;18.25;2.95;;;;;;;;;;5035204;28;20021;-76
2021/12/03 01:04:40;;;;;;;15.90;2.90;;;;;;;;;;5033324;28;20025;-76
2021/12/03 01:07:07;;;;;;;11.98;3.30;;;;;;;;;;5031711;28;20024;-76
2021/12/03 01:09:33;;;;;;;14.65;3.28;;;;;;;;;;5034363;28;20073;-73
2021/12/03 01:11:59;;;;;;;10.30;3.60;;;;;;;;;;5029518;28;20036;-75
2021/12/03 01:14:26;;;;;;;9.65;3.63;;;;;;;;;;5028200;28;20635;-75
2021/12/03 01:16:52;;;;;;;14.65;3.22;;;;;;;;;;5028818;28;20033;-76
2021/12/03 01:19:18;;;;;;;15.43;3.95;;;;;;;;;;5032850;28;20111;-74
2021/12/03 01:21:46;;;;;;;13.68;4.00;;;;;;;;;;5031298;28;20031;-77
2021/12/03 01:24:12;;;;;;;12.20;3.47;;;;;;;;;;5032615;28;20048;-74
2021/12/03 01:26:40;;;;;;;14.10;3.33;;;;;;;;;;5032981;28;20477;-73
2021/12/03 01:29:07;;;;;;;12.85;3.38;;;;;;;;;;5030418;28;20112;-76
2021/12/03 01:31:33;;;;;;;14.68;3.67;;;;;;;;;;5028676;28;20021;-75
2021/12/03 01:33:59;;;;;;;19.08;4.80;;;;;;;;;;5029722;28;20029;-75
2021/12/03 01:36:25;;;;;;;17.17;4.05;;;;;;;;;;5032089;28;20481;-77
2021/12/03 01:38:51;;;;;;;13.88;4.00;;;;;;;;;;5030244;28;20036;-75
2021/12/03 01:41:18;;;;;;;9.07;3.95;;;;;;;;;;5025836;28;20960;-76
2021/12/03 01:43:44;;;;;;;11.10;3.45;;;;;;;;;;5032434;28;20045;-75
2021/12/03 01:46:11;;;;;;;15.07;3.58;;;;;;;;;;5030538;28;20032;-76
2021/12/03 01:48:39;;;;;;;13.23;4.45;;;;;;;;;;5030915;28;20382;-76
2021/12/03 01:51:06;;;;;;;14.00;3.90;;;;;;;;;;5031963;28;20032;-76
2021/12/03 01:53:34;;;;;;;16.05;3.45;;;;;;;;;;5026909;28;20539;-77
2021/12/03 01:56:02;;;;;;;16.73;4.07;;;;;;;;;;5030755;28;20032;-76
2021/12/03 01:58:28;;;;;;;16.45;3.88;;;;;;;;;;5030640;28;20021;-76
2021/12/03 02:00:56;;;;;;;14.77;3.88;;;;;;;;;;5029454;28;20036;-73
2021/12/03 02:03:23;;;;;;;10.45;4.10;;;;;;;;;;5028207;28;20060;-75
2021/12/03 02:05:50;;;;;;;16.52;4.43;;;;;;;;;;5031940;28;20550;-76
2021/12/03 02:08:16;;;;;;;11.43;3.20;;;;;;;;;;5032840;28;20017;-76
2021/12/03 02:10:42;;;;;;;16.55;3.35;;;;;;;;;;5027362;28;20033;-74
2021/12/03 02:13:10;;;;;;;14.70;4.57;;;;;;;;;;5027111;28;20580;-76
2021/12/03 02:15:37;;;;;;;12.23;3.90;;;;;;;;;;5027280;28;20043;-77
2021/12/03 02:18:03;;;;;;;10.48;3.75;;;;;;;;;;5025188;28;20021;-75
2021/12/03 02:20:30;;;;;;;11.63;3.20;;;;;;;;;;5031225;28;20025;-76
2021/12/03 02:22:56;;;;;;;13.80;3.85;;;;;;;;;;5029929;28;20030;-76
2021/12/03 02:25:23;;;;;;;18.55;3.97;;;;;;;;;;5028935;28;20112;-75
2021/12/03 02:27:54;;;;;;;12.68;3.40;;;;;;;;;;5027653;28;20025;-76
2021/12/03 02:30:21;;;;;;;15.02;4.20;;;;;;;;;;5029693;28;20028;-77
2021/12/03 02:32:49;;;;;;;23.02;4.00;;;;;;;;;;5030344;28;20482;-76
2021/12/03 02:35:16;;;;;;;14.32;4.20;;;;;;;;;;5027242;28;20022;-77
2021/12/03 02:37:42;;;;;;;25.15;5.57;;;;;;;;;;5032431;28;20021;-76
2021/12/03 02:40:08;;;;;;;20.52;5.15;;;;;;;;;;5029601;28;20030;-74
2021/12/03 02:42:35;;;;;;;24.05;5.15;;;;;;;;;;5029176;28;20547;-76
2021/12/03 02:45:01;;;;;;;30.55;6.22;;;;;;;;;;5031901;28;20072;-74
2021/12/03 02:47:27;;;;;;;22.88;5.80;;;;;;;;;;5031394;28;20097;-75
2021/12/03 02:49:53;;;;;;;22.27;5.40;;;;;;;;;;5036871;28;20041;-76
2021/12/03 02:52:20;;;;;;;16.02;5.05;;;;;;;;;;5032846;28;20021;-76
2021/12/03 02:54:46;;;;;;;18.27;5.50;;;;;;;;;;5036341;28;20021;-76
2021/12/03 02:57:12;;;;;;;14.32;4.93;;;;;;;;;;5037743;28;20075;-76
2021/12/03 02:59:38;;;;;;;14.70;4.97;;;;;;;;;;5031364;28;20033;-77
2021/12/03 03:02:04;;;;;;;12.95;4.55;;;;;;;;;;5035950;28;20029;-76
2021/12/03 03:04:30;;;;;;;24.23;7.05;;;;;;;;;;5032615;28;20224;-76
2021/12/03 03:06:57;;;;;;;14.50;3.90;;;;;;;;;;5035210;28;20484;-75
2021/12/03 03:09:24;;;;;;;17.70;4.65;;;;;;;;;;5035243;28;20491;-75
2021/12/03 03:11:51;;;;;;;15.45;5.20;;;;;;;;;;5027839;28;20021;-76
2021/12/03 03:14:17;;;;;;;16.35;4.78;;;;;;;;;;5032348;28;20030;-76
2021/12/03 03:16:43;;;;;;;17.05;4.05;;;;;;;;;;5033587;28;20029;-76
2021/12/03 03:19:10;;;;;;;9.52;3.85;;;;;;;;;;5033953;28;20029;-77
2021/12/03 03:21:36;;;;;;;15.88;4.55;;;;;;;;;;5032793;28;20128;-75
2021/12/03 03:24:04;;;;;;;14.85;4.10;;;;;;;;;;5035724;28;20037;-76
2021/12/03 03:26:30;;;;;;;10.32;3.33;;;;;;;;;;5034973;28;20021;-78
2021/12/03 03:28:57;;;;;;;11.63;4.43;;;;;;;;;;5031591;28;20652;-76
2021/12/03 03:31:23;;;;;;;13.48;4.82;;;;;;;;;;5034508;28;20052;-77
2021/12/03 03:33:50;;;;;;;11.00;4.10;;;;;;;;;;5027211;28;20025;-76
2021/12/03 03:36:16;;;;;;;9.20;3.72;;;;;;;;;;5034054;28;20091;-75
2021/12/03 03:38:42;;;;;;;15.82;4.30;;;;;;;;;;5030659;28;20025;-76
2021/12/03 03:41:08;;;;;;;13.93;3.75;;;;;;;;;;5035401;28;20040;-77
2021/12/03 03:43:34;;;;;;;15.02;3.63;;;;;;;;;;5036421;28;20037;-75
2021/12/03 03:46:00;;;;;;;15.77;3.53;;;;;;;;;;5037127;28;20036;-77
2021/12/03 03:48:27;;;;;;;9.60;3.20;;;;;;;;;;5034371;28;20026;-77
2021/12/03 03:50:53;;;;;;;9.05;3.58;;;;;;;;;;5032286;28;20032;-77
2021/12/03 03:53:19;;;;;;;9.90;3.47;;;;;;;;;;5033680;28;20033;-77
2021/12/03 03:55:45;;;;;;;16.17;4.05;;;;;;;;;;5034142;28;20033;-76
2021/12/03 03:58:11;;;;;;;8.88;3.63;;;;;;;;;;5033521;28;20033;-77
2021/12/03 04:00:40;;;;;;;18.20;3.97;;;;;;;;;;5032156;28;20025;-77
2021/12/03 04:03:06;;;;;;;5.32;2.83;;;;;;;;;;5029778;28;20025;-77
2021/12/03 04:05:32;;;;;;;10.27;3.28;;;;;;;;;;5027853;28;20029;-75
2021/12/03 04:07:58;;;;;;;8.55;3.10;;;;;;;;;;5028307;28;20017;-76
2021/12/03 04:10:25;;;;;;;7.95;3.33;;;;;;;;;;5032320;28;20045;-76
2021/12/03 04:12:51;;;;;;;7.05;3.15;;;;;;;;;;5030050;28;20365;-75
2021/12/03 04:15:17;;;;;;;12.55;3.28;;;;;;;;;;5032271;28;20558;-77
2021/12/03 04:17:43;;;;;;;6.78;2.95;;;;;;;;;;5033809;28;20546;-77
2021/12/03 04:20:11;;;;;;;8.90;3.15;;;;;;;;;;5028683;28;20065;-76
2021/12/03 04:22:37;;;;;;;7.88;3.03;;;;;;;;;;5030189;28;20022;-77
2021/12/03 04:25:05;;;;;;;7.90;3.08;;;;;;;;;;5031152;28;20078;-75
2021/12/03 04:27:31;;;;;;;6.30;2.95;;;;;;;;;;5029202;28;20029;-77
2021/12/03 04:29:58;;;;;;;9.85;2.72;;;;;;;;;;5029338;28;20029;-74
2021/12/03 04:32:25;;;;;;;10.73;3.10;;;;;;;;;;5029621;28;20535;-75
2021/12/03 04:34:51;;;;;;;11.30;3.00;;;;;;;;;;5027717;28;20029;-75
2021/12/03 04:37:18;;;;;;;4.75;2.50;;;;;;;;;;5027916;28;20047;-76
2021/12/03 04:39:44;;;;;;;4.57;2.35;;;;;;;;;;5028813;28;20029;-76
2021/12/03 04:42:10;;;;;;;5.22;2.22;;;;;;;;;;5031672;28;20113;-76
2021/12/03 04:44:37;;;;;;;7.78;2.38;;;;;;;;;;5032815;28;20557;-76
2021/12/03 04:47:04;;;;;;;11.15;2.95;;;;;;;;;;5026558;28;20369;-75
2021/12/03 04:49:30;;;;;;;8.65;2.47;;;;;;;;;;5028950;28;20024;-76
2021/12/03 04:51:57;;;;;;;4.60;2.17;;;;;;;;;;5029737;28;20028;-77
2021/12/03 04:54:23;;;;;;;5.80;2.30;;;;;;;;;;5029062;28;20167;-77
2021/12/03 04:56:50;;;;;;;5.15;2.33;;;;;;;;;;5033091;28;20029;-75
2021/12/03 04:59:16;;;;;;;5.30;2.10;;;;;;;;;;5028750;28;20036;-76
2021/12/03 05:01:42;;;;;;;4.45;1.90;;;;;;;;;;5024735;28;20022;-77
2021/12/03 05:04:08;;;;;;;5.85;2.67;;;;;;;;;;5024409;28;20033;-76
2021/12/03 05:06:56;;;;;;;4.10;1.63;;;;;;;;;;5024985;28;20079;-75
2021/12/03 05:09:22;;;;;;;5.35;1.70;;;;;;;;;;5019498;28;20621;-76
2021/12/03 05:11:49;;;;;;;6.68;2.03;;;;;;;;;;5023138;28;20652;-76
2021/12/03 05:14:15;;;;;;;5.07;2.10;;;;;;;;;;5020663;28;20051;-74
2021/12/03 05:16:45;;;;;;;2.70;1.60;;;;;;;;;;5022587;28;20026;-76
2021/12/03 05:19:12;;;;;;;3.95;1.88;;;;;;;;;;5023125;28;20029;-76
2021/12/03 05:21:39;;;;;;;6.93;1.98;;;;;;;;;;5020441;28;20030;-78
2021/12/03 05:24:06;;;;;;;3.50;1.92;;;;;;;;;;5026289;28;21465;-77
2021/12/03 05:26:32;;;;;;;3.67;1.42;;;;;;;;;;5025804;28;20028;-77
2021/12/03 05:28:58;;;;;;;3.17;1.40;;;;;;;;;;5025034;28;20033;-78
2021/12/03 05:31:24;;;;;;;3.28;1.45;;;;;;;;;;5022237;28;20029;-76
2021/12/03 05:33:50;;;;;;;4.95;1.60;;;;;;;;;;5021303;28;20243;-77
2021/12/03 05:36:16;;;;;;;3.30;1.10;;;;;;;;;;5023796;28;20032;-77
2021/12/03 05:38:43;;;;;;;4.28;1.40;;;;;;;;;;5022918;28;20043;-74
2021/12/03 05:41:09;;;;;;;6.80;1.63;;;;;;;;;;5019710;28;20049;-78
2021/12/03 05:43:35;;;;;;;8.68;1.65;;;;;;;;;;5021130;28;20693;-77
2021/12/03 05:46:01;;;;;;;4.65;1.77;;;;;;;;;;5025385;28;20032;-77
2021/12/03 05:48:27;;;;;;;4.57;1.38;;;;;;;;;;5018956;28;20032;-77
2021/12/03 05:50:53;;;;;;;3.72;1.20;;;;;;;;;;5028812;28;20112;-75
2021/12/03 05:53:19;;;;;;;1.50;1.20;;;;;;;;;;5026796;28;20193;-76
2021/12/03 05:55:46;;;;;;;2.20;1.17;;;;;;;;;;5027306;28;20528;-78
2021/12/03 05:58:12;;;;;;;4.45;1.23;;;;;;;;;;5028088;28;20482;-76
2021/12/03 06:00:42;;;;;;;4.68;1.20;;;;;;;;;;5030516;28;20112;-79
2021/12/03 06:03:08;;;;;;;4.63;1.40;;;;;;;;;;5027272;28;20029;-77
2021/12/03 06:05:35;;;;;;;5.95;1.45;;;;;;;;;;5029180;28;20509;-77
2021/12/03 06:08:01;;;;;;;4.68;1.60;;;;;;;;;;5030134;28;20032;-75
2021/12/03 06:10:28;;;;;;;3.33;1.48;;;;;;;;;;5028761;28;20049;-76
2021/12/03 06:12:54;;;;;;;4.35;1.30;;;;;;;;;;5031354;28;20026;-76
2021/12/03 06:15:21;;;;;;;2.28;1.27;;;;;;;;;;5030390;28;20025;-78
2021/12/03 06:17:47;;;;;;;5.32;1.38;;;;;;;;;;5030797;28;20033;-77
2021/12/03 06:20:15;;;;;;;5.13;1.23;;;;;;;;;;5032449;28;20021;-77
2021/12/03 06:22:41;;;;;;;5.15;1.65;;;;;;;;;;5033727;28;20107;-78
2021/12/03 06:25:08;;;;;;;3.05;1.13;;;;;;;;;;5029306;28;20040;-76
2021/12/03 06:27:36;;;;;;;2.05;1.20;;;;;;;;;;5033260;28;20036;-77
2021/12/03 06:30:03;;;;;;;3.97;1.27;;;;;;;;;;5030120;28;20025;-76
2021/12/03 06:32:29;;;;;;;2.60;0.82;;;;;;;;;;5034986;28;20033;-77
2021/12/03 06:34:55;;;;;;;5.32;1.30;;;;;;;;;;5034974;28;20037;-76
2021/12/03 06:37:21;;;;;;;2.45;1.05;;;;;;;;;;5034444;28;20758;-75
2021/12/03 06:39:48;;;;;;;2.05;0.85;;;;;;;;;;5034695;28;20025;-76
2021/12/03 06:42:14;;;;;;;3.20;0.93;;;;;;;;;;5032981;28;20420;-78
2021/12/03 06:44:40;;;;;;;1.88;1.00;;;;;;;;;;5033538;28;20033;-76
2021/12/03 06:47:06;;;;;;;3.28;0.90;;;;;;;;;;5034210;28;20020;-79
2021/12/03 06:49:33;;;;;;;5.43;1.13;;;;;;;;;;5030207;28;20162;-79
2021/12/03 06:52:09;;;;;;;4.15;1.13;;;;;;;;;;5036305;28;20032;-80
2021/12/03 06:54:36;;;;;;;2.90;1.15;;;;;;;;;;5032451;28;20033;-80
2021/12/03 06:57:04;;;;;;;3.42;1.00;;;;;;;;;;5031016;28;20938;-77
2021/12/03 06:59:31;;;;;;;3.95;1.00;;;;;;;;;;5030801;28;20470;-74
2021/12/03 07:01:57;;;;;;;1.25;0.80;;;;;;;;;;5034889;28;20029;-80
2021/12/03 07:04:24;;;;;;;1.73;0.70;;;;;;;;;;5029313;28;20041;-76
2021/12/03 07:06:50;;;;;;;1.38;0.75;;;;;;;;;;5034931;28;20028;-75
2021/12/03 07:09:17;;;;;;;1.85;1.10;;;;;;;;;;5035194;28;20132;-75
2021/12/03 07:11:43;;;;;;;3.20;0.85;;;;;;;;;;5031775;28;20033;-76
2021/12/03 07:14:09;;;;;;;1.30;0.60;;;;;;;;;;5031074;28;20029;-75
2021/12/03 07:16:36;;;;;;;3.40;0.63;;;;;;;;;;5034152;28;20404;-75
2021/12/03 07:19:02;;;;;;;2.85;1.30;;;;;;;;;;5031082;28;20484;-73
2021/12/03 07:21:28;;;;;;;3.03;1.10;;;;;;;;;;5036344;28;20020;-76
2021/12/03 07:23:55;;;;;;;5.10;1.08;;;;;;;;;;5031874;28;20041;-75
2021/12/03 07:26:22;;;;;;;3.88;1.13;;;;;;;;;;5033190;28;20167;-76
2021/12/03 07:28:49;;;;;;;1.55;0.90;;;;;;;;;;5030954;28;20155;-76
2021/12/03 07:31:16;;;;;;;2.33;0.93;;;;;;;;;;5031463;28;20025;-75
2021/12/03 07:33:42;;;;;;;2.58;0.70;;;;;;;;;;5034339;28;20987;-76
2021/12/03 07:36:08;;;;;;;2.35;0.85;;;;;;;;;;5033065;28;20132;-74
2021/12/03 07:38:35;;;;;;;2.58;1.10;;;;;;;;;;5033424;28;20079;-74
2021/12/03 07:41:02;;;;;;;5.43;1.30;;;;;;;;;;5032661;28;20033;-74
2021/12/03 07:43:28;;;;;;;4.80;1.20;;;;;;;;;;5033010;28;20170;-76
2021/12/03 07:45:54;;;;;;;4.28;1.52;;;;;;;;;;5033980;28;20029;-74
2021/12/03 07:48:22;;;;;;;2.10;0.80;;;;;;;;;;5033970;28;20052;-75
2021/12/03 07:50:49;;;;;;;1.80;0.80;;;;;;;;;;5037903;28;20056;-83
2021/12/03 07:53:18;;;;;;;3.03;1.13;;;;;;;;;;5031904;28;20068;-84
2021/12/03 07:55:44;;;;;;;1.90;0.90;;;;;;;;;;5031009;28;20171;-90
2021/12/03 07:58:11;;;;;;;3.83;1.05;;;;;;;;;;5034111;28;20112;-81
2021/12/03 08:00:37;;;;;;;1.02;0.50;;;;;;;;;;5036219;28;20027;-76
2021/12/03 08:03:04;;;;;;;1.45;0.73;;;;;;;;;;5028787;28;20513;-78
2021/12/03 08:05:30;;;;;;;5.80;0.68;;;;;;;;;;5031166;28;20739;-78
2021/12/03 08:07:58;;;;;;;1.42;0.52;;;;;;;;;;5029429;28;20032;-77
2021/12/03 08:10:25;;;;;;;3.08;0.70;;;;;;;;;;5028593;28;20141;-76
2021/12/03 08:12:51;;;;;;;3.63;0.90;;;;;;;;;;5027436;28;20055;-80
2021/12/03 08:15:17;;;;;;;1.00;0.70;;;;;;;;;;5028183;28;20409;-77
2021/12/03 08:17:47;;;;;;;1.05;0.60;;;;;;;;;;5035340;28;20491;-78
2021/12/03 08:20:13;;;;;;;1.73;0.90;;;;;;;;;;5034977;28;20452;-80
2021/12/03 08:22:40;;;;;;;4.93;1.60;;;;;;;;;;5027370;28;20560;-80
2021/12/03 08:25:06;;;;;;;2.75;1.50;;;;;;;;;;5028854;28;20192;-80
2021/12/03 08:27:32;;;;;;;5.03;1.15;;;;;;;;;;5032188;28;20025;-78
2021/12/03 08:29:59;;;;;;;2.05;0.90;;;;;;;;;;5032554;28;20033;-75
2021/12/03 08:32:25;;;;;;;6.25;1.50;;;;;;;;;;5034385;28;20412;-78
2021/12/03 08:34:51;;;;;;;4.20;1.33;;;;;;;;;;5030455;28;20021;-78
2021/12/03 08:37:17;;;;;;;4.13;0.90;;;;;;;;;;5033585;28;20021;-78
2021/12/03 08:39:43;;;;;;;2.92;0.60;;;;;;;;;;5032157;28;20028;-77
2021/12/03 08:42:10;;;;;;;3.60;1.48;;;;;;;;;;5028630;28;20025;-78
2021/12/03 08:44:37;;;;;;;4.35;1.60;;;;;;;;;;5031298;28;20029;-78
2021/12/03 08:47:06;;;;;;;4.05;0.82;;;;;;;;;;5030514;28;20103;-77
2021/12/03 08:49:37;;;;;;;4.70;1.10;;;;;;;;;;5029512;28;20048;-74
2021/12/03 08:54:51;;;;;;;3.70;1.05;;;;;;;;;;5033797;28;20497;-76
2021/12/03 08:57:24;;;;;;;6.53;1.08;;;;;;;;;;5031575;28;20080;-77
2021/12/03 08:59:52;;;;;;;3.70;0.70;;;;;;;;;;5030574;28;20037;-77
2021/12/03 09:02:18;;;;;;;1.23;0.68;;;;;;;;;;5031448;28;20022;-77
2021/12/03 09:04:44;;;;;;;4.80;0.90;;;;;;;;;;5034429;28;20049;-76
2021/12/03 09:07:11;;;;;;;2.10;0.50;;;;;;;;;;5030485;28;20032;-73
2021/12/03 09:09:37;;;;;;;2.28;0.47;;;;;;;;;;5032408;28;20084;-78
2021/12/03 09:12:04;;;;;;;2.25;0.80;;;;;;;;;;5029818;28;20029;-76
2021/12/03 09:14:37;;;;;;;2.05;0.50;;;;;;;;;;5030415;28;20025;-74
2021/12/03 09:17:23;;;;;;;7.68;0.93;;;;;;;;;;5027429;28;20022;-75
2021/12/03 09:25:09;;;;;;;1.63;0.52;;;;;;;;;;5029683;28;20130;-72
2021/12/03 09:27:35;;;;;;;2.95;0.93;;;;;;;;;;5032036;28;20037;-74
2021/12/03 09:30:03;;;;;;;3.25;0.57;;;;;;;;;;5026577;28;20091;-77
2021/12/03 09:32:31;;;;;;;2.65;0.40;;;;;;;;;;5030233;28;20831;-78
2021/12/03 09:34:58;;;;;;;3.38;0.57;;;;;;;;;;5028467;28;20040;-78
2021/12/03 09:37:25;;;;;;;2.42;0.73;;;;;;;;;;5027816;28;20038;-76
2021/12/03 09:39:51;;;;;;;1.42;0.52;;;;;;;;;;5027472;28;20033;-75
2021/12/03 09:42:21;;;;;;;6.07;0.80;;;;;;;;;;5028622;28;20113;-78
2021/12/03 09:44:52;;;;;;;4.43;0.60;;;;;;;;;;5029069;28;20064;-74
2021/12/03 09:47:20;;;;;;;5.68;0.50;;;;;;;;;;5026937;28;20039;-77
2021/12/03 09:49:53;;;;;;;2.90;0.40;;;;;;;;;;5024311;28;20033;-75
2021/12/03 09:55:12;;;;;;;4.70;1.10;;;;;;;;;;5028899;28;20052;-76
2021/12/03 09:57:43;;;;;;;5.75;1.02;;;;;;;;;;5030072;28;20068;-73
2021/12/03 10:13:38;;;;;;;1.90;0.85;;;;;;;;;;5030992;28;20030;-75
2021/12/03 10:18:51;;;;;;;4.55;1.25;;;;;;;;;;5030158;28;20240;-75
2021/12/03 10:24:37;;;;;;;2.25;0.47;;;;;;;;;;5027657;28;20056;-77
2021/12/03 10:33:06;;;;;;;0.93;0.43;;;;;;;;;;5031098;28;20032;-77
2021/12/03 10:36:37;;;;;;;3.75;1.27;;;;;;;;;;5030062;28;20025;-74
2021/12/03 10:44:05;;;;;;;2.45;0.40;;;;;;;;;;5028799;28;20469;-77
2021/12/03 11:13:09;;;;;;;3.35;0.30;;;;;;;;;;5031422;28;20141;-76
2021/12/03 11:18:29;;;;;;;5.10;1.05;;;;;;;;;;5032521;28;20116;-76
2021/12/03 11:43:18;;;;;;;3.83;1.00;;;;;;;;;;5031846;28;20041;-76
2021/12/03 11:50:15;;;;;;;6.18;1.05;;;;;;;;;;5032284;28;20052;-77
2021/12/03 13:13:26;;;;;;;7.32;1.30;;;;;;;;;;5028519;28;20087;-73
2021/12/03 14:10:45;;;;;;;3.05;0.82;;;;;;;;;;5034622;28;19928;-72
2021/12/03 14:37:33;;;;;;;5.40;1.67;;;;;;;;;;5027993;28;20037;-73
2021/12/03 14:43:00;;;;;;;17.77;7.22;;;;;;;;;;5030406;28;20029;-74
2021/12/03 14:48:32;;;;;;;1.90;0.80;;;;;;;;;;5034465;28;20534;-73
2021/12/03 14:51:14;;;;;;;2.85;0.85;;;;;;;;;;5036268;28;20017;-73
2021/12/03 14:54:15;;;;;;;1.13;0.63;;;;;;;;;;5034212;28;20029;-73
2021/12/03 14:56:33;;;;;;;0.82;0.30;;;;;;;;;;5035804;28;20480;-73
2021/12/03 14:59:28;;;;;;;3.55;1.48;;;;;;;;;;5033560;28;20095;-73
2021/12/03 15:02:01;;;;;;;1.08;0.65;;;;;;;;;;5033089;28;20021;-73
2021/12/03 15:07:16;;;;;;;0.85;0.40;;;;;;;;;;5033343;28;20038;-73
2021/12/03 15:09:44;;;;;;;4.63;1.02;;;;;;;;;;5034625;28;20040;-74
2021/12/03 15:25:30;;;;;;;2.35;0.52;;;;;;;;;;5032858;28;20250;-73
2021/12/03 15:33:08;;;;;;;0.95;0.52;;;;;;;;;;5035489;28;19908;-73
2021/12/03 15:35:56;;;;;;;0.57;0.30;;;;;;;;;;5033503;28;20064;-73
2021/12/03 15:38:44;;;;;;;3.38;0.30;;;;;;;;;;5032175;28;20082;-74
2021/12/03 15:41:35;;;;;;;1.05;0.30;;;;;;;;;;5034793;28;20033;-73
2021/12/03 15:57:32;;;;;;;0.52;0.17;;;;;;;;;;5031537;28;20033;-73
2021/12/03 16:08:03;;;;;;;2.40;0.50;;;;;;;;;;5031311;28;20024;-73
2021/12/03 16:10:37;;;;;;;1.25;0.22;;;;;;;;;;5031052;28;20052;-76
2021/12/03 16:51:50;;;;;;;3.13;0.57;;;;;;;;;;5032543;28;20573;-75
2021/12/03 16:54:24;;;;;;;1.20;0.50;;;;;;;;;;5033951;28;20079;-74
2021/12/03 16:56:51;;;;;;;2.50;0.77;;;;;;;;;;5031273;28;20063;-74
2021/12/03 16:59:17;;;;;;;4.75;1.92;;;;;;;;;;5030660;28;20044;-74
2021/12/03 17:02:05;;;;;;;3.58;1.70;;;;;;;;;;5029784;28;20028;-74
2021/12/03 17:05:01;;;;;;;5.07;1.60;;;;;;;;;;5030169;28;20041;-73
2021/12/03 17:16:21;;;;;;;5.95;1.55;;;;;;;;;;5036635;28;20038;-74
2021/12/03 17:48:43;;;;;;;7.82;1.48;;;;;;;;;;5031901;28;20132;-75
2021/12/03 17:54:03;;;;;;;6.15;1.33;;;;;;;;;;5032142;28;20094;-73
2021/12/03 17:56:33;;;;;;;9.07;2.80;;;;;;;;;;5030236;28;20083;-76
2021/12/03 18:01:50;;;;;;;10.25;2.30;;;;;;;;;;5031948;28;20056;-73
2021/12/03 18:05:23;;;;;;;;;;;;;;;;;;5028368;28;20040;-74
2021/12/03 18:55:29;;;;;;;8.50;2.33;;;;;;;;;;5028918;28;20543;-74
2021/12/03 18:57:59;;;;;;;5.22;1.60;;;;;;;;;;5031479;28;20029;-73
2021/12/03 19:00:28;;;;;;;7.40;1.75;;;;;;;;;;5031498;28;20032;-74
2021/12/03 19:02:57;;;;;;;5.00;1.85;;;;;;;;;;5032785;28;20033;-75
2021/12/03 19:09:06;;;;;;;8.15;2.30;;;;;;;;;;5035693;28;20025;-75
2021/12/03 19:11:18;;;;;;;12.90;2.78;;;;;;;;;;5032102;28;20026;-73
2021/12/03 19:13:44;;;;;;;7.00;2.85;;;;;;;;;;5030345;28;20078;-74
2021/12/03 19:16:13;;;;;;;12.85;3.80;;;;;;;;;;5026251;28;20505;-74
2021/12/03 19:18:44;;;;;;;8.73;2.88;;;;;;;;;;5031462;28;20032;-74
2021/12/03 19:21:13;;;;;;;6.35;2.95;;;;;;;;;;5027361;28;20508;-74
2021/12/03 19:23:40;;;;;;;16.08;5.45;;;;;;;;;;5030276;28;20429;-73
2021/12/03 19:26:06;;;;;;;12.77;4.10;;;;;;;;;;5031131;28;20571;-75
2021/12/03 19:28:32;;;;;;;9.75;2.40;;;;;;;;;;5029525;28;20030;-73
2021/12/03 19:30:59;;;;;;;7.65;1.85;;;;;;;;;;5030460;28;20021;-74
2021/12/03 19:33:26;;;;;;;7.10;2.00;;;;;;;;;;5033558;28;20112;-73
2021/12/03 19:35:52;;;;;;;7.00;2.40;;;;;;;;;;5029926;28;20024;-75
2021/12/03 19:38:18;;;;;;;8.02;2.70;;;;;;;;;;5028021;28;20040;-74
2021/12/03 19:40:58;;;;;;;7.45;1.70;;;;;;;;;;5028788;28;20040;-72
2021/12/03 19:43:32;;;;;;;5.57;1.60;;;;;;;;;;5028734;28;20025;-75
2021/12/03 19:46:03;;;;;;;8.35;1.50;;;;;;;;;;5032015;28;20030;-73
2021/12/03 19:48:49;;;;;;;11.23;1.77;;;;;;;;;;5026875;28;20027;-73
2021/12/03 19:51:17;;;;;;;7.03;1.25;;;;;;;;;;5027571;28;20503;-76
2021/12/03 19:53:49;;;;;;;6.25;1.55;;;;;;;;;;5027089;28;20018;-75
2021/12/03 19:56:15;;;;;;;4.28;1.00;;;;;;;;;;5030704;28;20025;-73
2021/12/03 19:58:41;;;;;;;8.23;2.58;;;;;;;;;;5026200;28;20032;-76
2021/12/03 20:01:07;;;;;;;10.73;5.03;;;;;;;;;;5029725;28;20684;-79
2021/12/03 20:03:34;;;;;;;6.60;2.63;;;;;;;;;;5027223;28;20113;-80
2021/12/03 20:06:00;;;;;;;9.02;1.60;;;;;;;;;;5029171;28;20037;-76
2021/12/03 20:08:26;;;;;;;8.82;1.70;;;;;;;;;;5025573;28;20032;-79
2021/12/03 20:10:56;;;;;;;9.38;1.65;;;;;;;;;;5027954;28;20033;-79
2021/12/03 20:13:25;;;;;;;6.95;1.65;;;;;;;;;;5024360;28;20533;-79
2021/12/03 20:18:35;;;;;;;11.32;2.80;;;;;;;;;;5029164;28;20057;-78
2021/12/03 20:21:01;;;;;;;6.15;1.58;;;;;;;;;;5029787;28;20143;-78
2021/12/03 20:23:33;;;;;;;7.30;1.80;;;;;;;;;;5028484;28;20580;-79
2021/12/03 20:26:28;;;;;;;8.93;2.53;;;;;;;;;;5029405;28;20652;-79
2021/12/03 20:29:01;;;;;;;11.07;2.15;;;;;;;;;;5025711;28;20030;-80
2021/12/03 20:31:33;;;;;;;8.73;2.00;;;;;;;;;;5030966;28;20033;-77
2021/12/03 20:34:07;;;;;;;6.13;1.52;;;;;;;;;;5027318;28;20025;-78
2021/12/03 20:39:35;;;;;;;6.55;1.40;;;;;;;;;;5011380;28;20676;-73
2021/12/03 20:42:15;;;;;;;9.25;2.03;;;;;;;;;;5026353;28;20165;-76
2021/12/03 20:47:35;;;;;;;8.43;1.27;;;;;;;;;;5021874;28;20033;-79
2021/12/03 20:52:53;;;;;;;8.07;1.30;;;;;;;;;;5028863;28;20040;-79
2021/12/03 21:08:50;;;;;;;5.38;1.17;;;;;;;;;;5027112;28;20060;-83
2021/12/03 21:11:28;;;;;;;6.28;1.38;;;;;;;;;;5029094;28;20522;-81
2021/12/03 21:13:59;;;;;;;5.53;1.17;;;;;;;;;;5024757;28;20266;-81
2021/12/03 21:16:52;;;;;;;4.97;1.42;;;;;;;;;;5024437;28;20414;-79
2021/12/03 21:19:35;;;;;;;5.93;0.98;;;;;;;;;;5025579;28;20017;-81
2021/12/03 21:22:09;;;;;;;6.30;1.40;;;;;;;;;;5034187;28;20151;-81
2021/12/03 21:24:38;;;;;;;6.72;1.77;;;;;;;;;;5028581;28;20033;-83
2021/12/03 21:30:13;;;;;;;4.97;1.20;;;;;;;;;;5028927;28;20092;-84
2021/12/03 21:43:20;;;;;;;7.25;1.40;;;;;;;;;;5031205;28;20044;-75
2021/12/03 21:45:46;;;;;;;6.50;1.25;;;;;;;;;;5029370;28;20428;-80
2021/12/03 21:48:13;;;;;;;5.00;1.40;;;;;;;;;;5029251;28;20481;-76
2021/12/03 21:50:39;;;;;;;6.35;1.30;;;;;;;;;;5031065;28;20064;-82
2021/12/03 21:53:06;;;;;;;6.30;1.83;;;;;;;;;;5031848;28;20018;-84
2021/12/03 21:55:35;;;;;;;5.47;1.33;;;;;;;;;;5026358;28;20053;-83
2021/12/03 21:58:02;;;;;;;5.50;1.02;;;;;;;;;;5028073;28;20030;-82
2021/12/03 22:00:28;;;;;;;7.13;1.05;;;;;;;;;;5035486;28;20104;-84
2021/12/03 22:02:54;;;;;;;6.53;1.13;;;;;;;;;;5026881;28;20650;-84
2021/12/03 22:05:20;;;;;;;6.88;1.40;;;;;;;;;;5032834;28;20692;-79
2021/12/03 22:07:46;;;;;;;8.88;0.95;;;;;;;;;;5025185;28;20465;-80
2021/12/03 22:10:12;;;;;;;5.32;1.10;;;;;;;;;;5027736;28;20046;-76
2021/12/03 22:12:39;;;;;;;5.25;1.10;;;;;;;;;;5030118;28;20025;-73
2021/12/03 22:15:05;;;;;;;6.20;1.17;;;;;;;;;;5036458;28;20114;-80
2021/12/03 22:17:32;;;;;;;4.40;1.35;;;;;;;;;;5034889;28;20500;-80
2021/12/03 22:19:58;;;;;;;7.03;1.40;;;;;;;;;;5029097;28;20482;-82
2021/12/03 22:22:24;;;;;;;8.07;1.27;;;;;;;;;;5027940;28;20023;-84
2021/12/03 22:24:51;;;;;;;10.55;1.75;;;;;;;;;;5031916;28;20071;-82
2021/12/03 22:27:17;;;;;;;18.75;2.10;;;;;;;;;;5026105;28;20631;-82
2021/12/03 22:29:44;;;;;;;7.85;1.85;;;;;;;;;;5029153;28;20059;-83
2021/12/03 22:32:10;;;;;;;3.83;1.35;;;;;;;;;;5034651;28;20025;-79
2021/12/03 22:34:36;;;;;;;6.50;1.20;;;;;;;;;;5035476;28;20040;-82
2021/12/03 22:37:03;;;;;;;9.32;1.23;;;;;;;;;;5025756;28;20755;-83
2021/12/03 22:39:30;;;;;;;4.90;1.42;;;;;;;;;;5031504;28;20029;-82
2021/12/03 22:41:56;;;;;;;6.55;1.88;;;;;;;;;;5034315;28;20067;-84
2021/12/03 22:44:23;;;;;;;5.03;1.48;;;;;;;;;;5034036;28;20581;-81